Time;durP1;ratioP1;P1;durP2;ratioP2;P2;SDS_P1;SDS_P2;PMS_P1;PMS_P2;Temp;Humidity;BMP_temperature;BMP_pressure;BME280_temperature;BME280_humidity;BME280_pressure;Samples;Min_cycle;Max_cycle;Signal;HPM_P1;HPM_P2
2021/06/10 00:00:38;;;;;;;10.82;7.82;;;14.20;99.90;;;;;;6041086;23;20339;-87
2021/06/10 00:03:06;;;;;;;8.55;7.38;;;14.30;99.90;;;;;;6047123;23;20030;-88
2021/06/10 00:05:35;;;;;;;7.97;6.13;;;14.20;99.90;;;;;;6035293;23;20066;-87
2021/06/10 00:08:04;;;;;;;7.60;6.28;;;14.20;99.90;;;;;;6012684;23;20023;-88
2021/06/10 00:10:32;;;;;;;10.93;7.93;;;14.10;99.90;;;;;;6037681;23;20031;-87
2021/06/10 00:13:00;;;;;;;8.52;7.43;;;14.10;99.90;;;;;;6012479;23;20027;-87
2021/06/10 00:15:31;;;;;;;9.65;8.63;;;14.10;99.90;;;;;;6012902;23;20034;-87
2021/06/10 00:18:01;;;;;;;7.20;6.47;;;14.10;99.90;;;;;;6036269;23;20054;-87
2021/06/10 00:20:31;;;;;;;11.57;7.80;;;14.10;99.90;;;;;;5988246;23;20019;-87
2021/06/10 00:22:59;;;;;;;9.80;7.60;;;14.10;99.90;;;;;;6047676;23;20023;-87
2021/06/10 00:25:28;;;;;;;10.05;9.02;;;14.10;99.90;;;;;;6040539;23;20351;-87
2021/06/10 00:28:05;;;;;;;10.95;8.50;;;14.10;99.90;;;;;;5993085;23;20023;-87
2021/06/10 00:30:34;;;;;;;11.00;8.23;;;14.00;99.90;;;;;;6035896;23;20022;-83
2021/06/10 00:33:03;;;;;;;9.82;8.82;;;14.00;99.90;;;;;;6039211;23;20074;-87
2021/06/10 00:35:31;;;;;;;10.15;8.95;;;14.00;99.90;;;;;;6031463;23;20037;-88
2021/06/10 00:38:00;;;;;;;10.43;9.05;;;14.00;99.90;;;;;;6035858;23;20109;-87
2021/06/10 00:40:30;;;;;;;9.52;7.63;;;14.00;99.90;;;;;;6035967;23;20038;-87
2021/06/10 00:42:59;;;;;;;11.32;8.85;;;14.00;99.90;;;;;;6036385;23;20466;-88
2021/06/10 00:45:27;;;;;;;11.82;9.65;;;14.00;99.90;;;;;;6035426;23;20058;-87
2021/06/10 00:47:55;;;;;;;9.90;6.85;;;13.90;99.90;;;;;;6012010;23;20023;-88
2021/06/10 00:50:38;;;;;;;10.63;7.68;;;13.90;99.90;;;;;;6035367;23;20027;-88
2021/06/10 00:53:08;;;;;;;8.82;7.18;;;13.90;99.90;;;;;;6040254;23;20031;-87
2021/06/10 00:55:36;;;;;;;8.48;7.68;;;13.90;99.90;;;;;;6037501;23;20476;-87
2021/06/10 00:58:04;;;;;;;9.57;8.23;;;13.90;99.90;;;;;;6012248;23;20026;-88
2021/06/10 01:00:32;;;;;;;8.93;7.95;;;13.80;99.90;;;;;;6034411;23;20024;-87
2021/06/10 01:03:03;;;;;;;8.10;7.30;;;13.80;99.90;;;;;;6012869;23;20023;-88
2021/06/10 01:05:31;;;;;;;11.13;7.97;;;13.70;99.90;;;;;;6011605;23;20027;-87
2021/06/10 01:08:24;;;;;;;9.60;7.78;;;13.80;99.90;;;;;;6036221;23;20027;-87
2021/06/10 01:10:52;;;;;;;9.23;6.93;;;13.70;99.90;;;;;;6035907;23;20023;-88
2021/06/10 01:13:39;;;;;;;8.45;7.28;;;13.60;99.90;;;;;;6012499;23;20530;-87
2021/06/10 01:16:08;;;;;;;8.98;8.00;;;13.50;99.90;;;;;;5988441;23;20027;-88
2021/06/10 01:18:40;;;;;;;10.50;8.73;;;13.40;99.90;;;;;;6012866;23;20031;-87
2021/06/10 01:21:10;;;;;;;11.80;7.38;;;13.40;99.90;;;;;;5988137;23;20443;-87
2021/06/10 01:23:46;;;;;;;8.57;7.75;;;13.40;99.90;;;;;;6012407;23;20019;-88
2021/06/10 01:26:36;;;;;;;15.57;8.20;;;13.40;99.90;;;;;;6011702;23;20023;-87
2021/06/10 01:29:08;;;;;;;10.07;7.35;;;13.40;99.90;;;;;;6033541;23;20024;-87
2021/06/10 01:31:37;;;;;;;13.80;11.20;;;13.40;99.90;;;;;;6012077;23;20317;-87
2021/06/10 01:34:08;;;;;;;10.82;8.48;;;13.40;99.90;;;;;;6011600;23;20027;-86
2021/06/10 01:36:42;;;;;;;11.35;9.57;;;13.40;99.90;;;;;;6034265;23;20031;-87
2021/06/10 01:39:13;;;;;;;13.85;11.75;;;13.40;99.90;;;;;;6037668;23;20015;-87
2021/06/10 01:41:42;;;;;;;9.48;8.48;;;13.40;99.90;;;;;;6034259;23;20027;-87
2021/06/10 01:44:11;;;;;;;11.15;8.68;;;13.30;99.90;;;;;;6011278;23;20023;-87
2021/06/10 01:46:40;;;;;;;10.35;8.48;;;13.30;99.90;;;;;;6012540;23;20015;-87
2021/06/10 01:49:11;;;;;;;9.13;8.05;;;13.30;99.90;;;;;;6011581;23;20027;-87
2021/06/10 01:51:40;;;;;;;8.70;7.90;;;13.20;99.90;;;;;;6012754;23;20027;-88
2021/06/10 01:54:09;;;;;;;10.07;8.82;;;13.10;99.90;;;;;;6012240;23;20034;-88
2021/06/10 01:56:40;;;;;;;11.15;7.40;;;13.10;99.90;;;;;;6011076;23;20023;-88
2021/06/10 01:59:09;;;;;;;9.23;7.80;;;13.10;99.90;;;;;;6012042;23;20053;-87
2021/06/10 02:01:39;;;;;;;13.95;9.65;;;13.00;99.90;;;;;;6037463;23;20351;-87
2021/06/10 02:04:08;;;;;;;10.35;8.63;;;13.00;99.90;;;;;;6034767;23;20031;-87
2021/06/10 02:06:43;;;;;;;15.95;10.60;;;13.10;99.90;;;;;;6035020;23;20491;-87
2021/06/10 02:09:12;;;;;;;11.60;8.95;;;13.00;99.90;;;;;;5988392;23;20038;-88
2021/06/10 02:11:40;;;;;;;12.32;11.10;;;13.00;99.90;;;;;;6012078;23;20034;-88
2021/06/10 02:14:10;;;;;;;14.68;9.25;;;13.00;99.90;;;;;;6034906;23;20419;-88
2021/06/10 02:16:39;;;;;;;11.10;8.70;;;12.80;99.90;;;;;;6033841;23;20026;-87
2021/06/10 02:19:09;;;;;;;11.30;8.20;;;12.80;99.90;;;;;;5988097;23;20489;-87
2021/06/10 02:21:38;;;;;;;16.88;8.65;;;12.70;99.90;;;;;;6011257;23;20371;-87
2021/06/10 02:24:06;;;;;;;9.98;8.45;;;12.60;99.90;;;;;;6011716;23;20038;-88
2021/06/10 02:26:34;;;;;;;13.43;9.38;;;12.60;99.90;;;;;;6036826;23;20023;-88
2021/06/10 02:29:04;;;;;;;10.40;8.50;;;12.60;99.90;;;;;;6011435;23;20470;-88
2021/06/10 02:31:32;;;;;;;9.75;8.77;;;12.50;99.90;;;;;;6012010;23;20026;-88
2021/06/10 02:34:02;;;;;;;10.75;7.95;;;12.50;99.90;;;;;;6033782;23;20026;-88
2021/06/10 02:36:31;;;;;;;12.05;9.32;;;12.40;99.90;;;;;;6010278;23;20023;-87
2021/06/10 02:39:06;;;;;;;9.35;7.10;;;12.30;99.90;;;;;;6036874;23;20023;-88
2021/06/10 02:41:38;;;;;;;7.68;6.88;;;12.30;99.90;;;;;;5987494;23;20019;-88
2021/06/10 02:44:07;;;;;;;8.35;7.55;;;12.20;99.90;;;;;;6034331;23;20039;-88
2021/06/10 02:46:35;;;;;;;9.18;7.47;;;12.20;99.90;;;;;;6035210;23;20019;-88
2021/06/10 02:49:04;;;;;;;9.55;7.68;;;12.20;99.90;;;;;;6035412;23;20032;-89
2021/06/10 02:51:33;;;;;;;9.65;8.55;;;12.20;99.90;;;;;;6036706;23;20019;-89
2021/06/10 02:54:05;;;;;;;10.88;8.55;;;12.30;99.90;;;;;;6036110;23;20027;-88
2021/06/10 02:56:35;;;;;;;8.98;7.75;;;12.40;99.90;;;;;;6036170;23;20063;-88
2021/06/10 02:59:04;;;;;;;11.60;8.15;;;12.40;99.90;;;;;;6011259;23;20027;-89
2021/06/10 03:01:37;;;;;;;12.38;9.90;;;12.40;99.90;;;;;;5987608;23;20034;-88
2021/06/10 03:04:08;;;;;;;9.70;7.85;;;12.50;99.90;;;;;;6010640;23;20030;-88
2021/06/10 03:06:37;;;;;;;9.98;8.90;;;12.50;99.90;;;;;;6011673;23;20023;-88
2021/06/10 03:09:06;;;;;;;10.18;9.15;;;12.50;99.90;;;;;;6010697;23;20498;-89
2021/06/10 03:11:39;;;;;;;10.80;9.00;;;12.50;99.90;;;;;;6036206;23;20474;-88
2021/06/10 03:14:11;;;;;;;10.05;9.05;;;12.60;99.90;;;;;;6010943;23;20024;-89
2021/06/10 03:16:41;;;;;;;8.55;7.57;;;12.60;99.90;;;;;;6011098;23;20020;-87
2021/06/10 03:19:09;;;;;;;12.73;9.73;;;12.70;99.90;;;;;;6045653;23;20023;-88
2021/06/10 03:21:37;;;;;;;10.95;9.80;;;12.70;99.90;;;;;;6010723;23;20347;-87
2021/06/10 03:24:06;;;;;;;10.05;8.98;;;12.70;99.90;;;;;;6034440;23;20026;-88
2021/06/10 03:26:38;;;;;;;8.95;7.88;;;12.70;99.90;;;;;;6036636;23;20026;-88
2021/06/10 03:29:09;;;;;;;14.88;9.63;;;12.70;99.90;;;;;;5987914;23;20023;-89
2021/06/10 03:31:38;;;;;;;11.50;9.60;;;12.80;99.90;;;;;;6011656;23;20463;-88
2021/06/10 03:34:06;;;;;;;11.48;10.38;;;12.80;99.90;;;;;;5987142;23;20395;-89
2021/06/10 03:36:35;;;;;;;12.10;9.82;;;12.80;99.90;;;;;;6010985;23;20023;-88
2021/06/10 03:39:05;;;;;;;13.65;8.77;;;12.90;99.90;;;;;;6034758;23;20026;-89
2021/06/10 03:41:36;;;;;;;;;;;13.00;99.90;;;;;;6034364;23;20019;-83
2021/06/10 03:44:04;;;;;;;10.05;8.70;;;13.00;99.90;;;;;;6042534;23;19949;-82
2021/06/10 03:46:32;;;;;;;10.25;8.93;;;13.10;99.90;;;;;;6045716;23;20340;-87
2021/06/10 03:49:00;;;;;;;10.57;8.40;;;13.20;99.90;;;;;;6033473;23;20027;-88
2021/06/10 03:51:28;;;;;;;10.70;9.65;;;13.20;99.90;;;;;;6011166;23;20834;-88
2021/06/10 03:53:56;;;;;;;12.65;9.65;;;13.20;99.90;;;;;;6035259;23;20034;-88
2021/06/10 03:56:24;;;;;;;10.95;9.13;;;13.20;99.90;;;;;;6011173;23;20459;-89
2021/06/10 03:58:52;;;;;;;14.10;10.10;;;13.30;99.90;;;;;;6046228;23;20474;-89
2021/06/10 04:01:20;;;;;;;12.50;10.75;;;13.30;99.90;;;;;;6038876;23;20094;-88
2021/06/10 04:03:48;;;;;;;12.38;10.80;;;13.40;99.90;;;;;;6010416;23;20046;-88
2021/06/10 04:06:17;;;;;;;12.93;10.52;;;13.40;99.90;;;;;;6035940;23;20030;-89
2021/06/10 04:08:45;;;;;;;17.10;11.90;;;13.50;99.90;;;;;;6040265;23;20030;-89
2021/06/10 04:11:12;;;;;;;14.07;9.82;;;13.60;99.90;;;;;;6034051;23;20526;-88
2021/06/10 04:13:40;;;;;;;16.30;11.10;;;13.60;99.90;;;;;;6033401;23;20467;-88
2021/06/10 04:16:08;;;;;;;11.48;10.07;;;13.70;99.90;;;;;;6034251;23;20027;-88
2021/06/10 04:18:52;;;;;;;14.52;10.80;;;13.70;99.90;;;;;;5979606;24;20078;-81
2021/06/10 04:21:21;;;;;;;12.38;10.18;;;13.80;99.90;;;;;;5978949;24;20051;-81
2021/06/10 04:23:49;;;;;;;13.10;10.63;;;13.80;99.90;;;;;;5977096;24;20031;-81
2021/06/10 04:26:18;;;;;;;13.07;10.55;;;13.90;99.90;;;;;;5989434;24;20020;-81
2021/06/10 04:28:46;;;;;;;12.75;10.70;;;14.00;99.90;;;;;;5979205;23;20032;-81
2021/06/10 04:31:19;;;;;;;13.20;10.43;;;14.00;99.90;;;;;;5991054;24;20024;-82
2021/06/10 04:33:47;;;;;;;13.13;10.13;;;14.10;99.90;;;;;;5982084;24;20032;-81
2021/06/10 04:36:16;;;;;;;13.07;11.20;;;14.10;99.90;;;;;;5979689;24;20051;-81
2021/06/10 04:38:44;;;;;;;13.07;9.55;;;14.20;99.90;;;;;;5981883;24;20020;-81
2021/06/10 04:41:12;;;;;;;13.63;9.55;;;14.20;99.90;;;;;;5982591;23;20349;-81
2021/06/10 04:43:40;;;;;;;13.57;11.60;;;14.30;99.90;;;;;;5990896;24;20028;-81
2021/06/10 04:46:08;;;;;;;11.93;10.77;;;14.40;99.90;;;;;;5980946;24;20448;-79
2021/06/10 04:48:37;;;;;;;11.38;10.20;;;14.50;99.90;;;;;;5981030;24;20456;-83
2021/06/10 04:51:08;;;;;;;11.95;10.15;;;14.60;99.90;;;;;;5980993;23;20036;-81
2021/06/10 04:53:41;;;;;;;11.38;9.48;;;14.70;99.90;;;;;;5982309;24;20460;-80
2021/06/10 04:56:09;;;;;;;11.00;9.40;;;14.80;99.90;;;;;;5981439;23;20020;-82
2021/06/10 04:58:38;;;;;;;11.65;9.98;;;14.80;99.90;;;;;;5981034;24;20020;-80
2021/06/10 05:01:08;;;;;;;20.05;10.02;;;14.90;99.90;;;;;;5979795;24;20436;-80
2021/06/10 05:03:36;;;;;;;10.65;9.55;;;14.90;99.90;;;;;;5981716;24;20020;-80
2021/06/10 05:06:04;;;;;;;15.00;9.77;;;14.90;99.90;;;;;;5980174;24;20054;-80
2021/06/10 05:08:33;;;;;;;17.85;9.57;;;15.00;99.90;;;;;;5986895;24;20017;-81
2021/06/10 05:11:01;;;;;;;13.30;10.70;;;15.10;99.90;;;;;;5981270;24;20459;-81
2021/06/10 05:13:28;;;;;;;14.18;11.52;;;15.10;99.90;;;;;;5980846;24;20028;-80
2021/06/10 05:15:57;;;;;;;15.68;10.07;;;15.20;99.90;;;;;;5988743;24;20027;-81
2021/06/10 05:18:25;;;;;;;12.13;9.90;;;15.30;99.90;;;;;;5982680;24;20083;-81
2021/06/10 05:20:53;;;;;;;14.35;10.73;;;15.30;99.90;;;;;;5978312;24;20032;-81
2021/06/10 05:23:21;;;;;;;12.63;10.25;;;15.30;99.90;;;;;;5990705;24;20028;-82
2021/06/10 05:25:49;;;;;;;11.80;10.60;;;15.40;99.90;;;;;;5981691;24;20039;-81
2021/06/10 05:28:17;;;;;;;10.82;9.65;;;15.50;99.90;;;;;;5978211;23;20044;-81
2021/06/10 05:30:45;;;;;;;12.27;10.25;;;15.50;99.90;;;;;;5979599;24;20460;-81
2021/06/10 05:33:13;;;;;;;11.45;10.15;;;15.60;99.90;;;;;;5979449;24;20032;-81
2021/06/10 05:35:41;;;;;;;13.52;9.63;;;15.60;99.90;;;;;;5986158;24;20024;-81
2021/06/10 05:38:09;;;;;;;11.82;9.88;;;15.70;99.90;;;;;;5978605;23;20028;-82
2021/06/10 05:40:36;;;;;;;16.40;10.82;;;15.70;99.90;;;;;;5983498;24;20364;-81
2021/06/10 05:43:04;;;;;;;16.60;10.15;;;15.70;99.90;;;;;;5955282;24;20028;-82
2021/06/10 05:45:32;;;;;;;12.25;10.35;;;15.80;99.90;;;;;;5954346;24;20472;-80
2021/06/10 05:48:00;;;;;;;13.50;9.88;;;15.80;99.90;;;;;;5978712;23;20444;-81
2021/06/10 05:50:28;;;;;;;10.40;8.95;;;15.80;99.90;;;;;;5975608;24;20336;-82
2021/06/10 05:53:00;;;;;;;10.70;8.82;;;16.00;99.90;;;;;;5982911;24;20028;-81
2021/06/10 05:55:28;;;;;;;22.90;11.95;;;16.10;99.90;;;;;;5954311;24;20016;-82
2021/06/10 05:57:56;;;;;;;8.85;7.95;;;16.30;99.90;;;;;;5954103;23;20027;-82
2021/06/10 06:00:24;;;;;;;11.27;9.30;;;16.60;99.90;;;;;;5951190;24;20032;-86
2021/06/10 06:02:52;;;;;;;13.68;10.70;;;16.60;99.90;;;;;;5979499;24;20020;-84
2021/06/10 06:05:29;;;;;;;11.13;9.98;;;16.80;99.90;;;;;;5979486;24;20024;-88
2021/06/10 06:08:04;;;;;;;12.80;9.50;;;16.70;99.90;;;;;;5932187;24;20051;-85
2021/06/10 06:10:34;;;;;;;14.05;8.57;;;16.70;99.90;;;;;;5957046;24;20443;-83
2021/06/10 06:13:03;;;;;;;14.15;9.93;;;16.50;99.90;;;;;;5954582;23;20032;-85
2021/06/10 06:15:31;;;;;;;10.70;8.98;;;16.50;99.90;;;;;;5978046;24;20024;-87
2021/06/10 06:18:03;;;;;;;16.77;10.18;;;16.60;99.90;;;;;;5976725;24;20020;-84
2021/06/10 06:20:33;;;;;;;12.45;10.73;;;16.60;99.90;;;;;;5949038;23;20031;-85
2021/06/10 06:23:01;;;;;;;11.38;9.10;;;16.40;99.90;;;;;;5952788;24;20028;-85
2021/06/10 06:25:29;;;;;;;13.70;9.40;;;16.40;99.90;;;;;;5979236;24;20467;-85
2021/06/10 06:27:57;;;;;;;9.65;8.27;;;16.30;99.90;;;;;;5952884;24;20028;-84
2021/06/10 06:30:25;;;;;;;14.07;8.55;;;16.30;99.90;;;;;;5976601;24;20336;-83
2021/06/10 06:32:53;;;;;;;13.02;9.27;;;16.20;99.90;;;;;;5953069;24;20174;-82
2021/06/10 06:35:21;;;;;;;12.30;11.00;;;16.10;99.90;;;;;;5984928;24;20016;-83
2021/06/10 06:37:50;;;;;;;14.07;9.32;;;16.10;99.90;;;;;;5977690;24;20035;-84
2021/06/10 06:40:24;;;;;;;19.20;9.25;;;16.00;99.90;;;;;;5983633;24;20488;-83
2021/06/10 06:42:54;;;;;;;12.15;9.10;;;16.00;99.90;;;;;;5978611;24;20028;-83
2021/06/10 06:45:22;;;;;;;19.90;10.77;;;16.00;99.90;;;;;;5976923;23;20028;-84
2021/06/10 06:47:50;;;;;;;11.20;9.43;;;15.90;99.90;;;;;;5929695;24;20490;-85
2021/06/10 06:50:18;;;;;;;11.90;9.95;;;15.90;99.90;;;;;;5974961;24;20016;-85
2021/06/10 06:52:49;;;;;;;11.90;9.18;;;16.00;99.90;;;;;;5976045;24;20024;-85
2021/06/10 06:55:20;;;;;;;10.35;8.82;;;16.00;99.90;;;;;;5952103;24;20017;-83
2021/06/10 06:57:49;;;;;;;15.45;9.77;;;16.10;99.90;;;;;;5952358;24;20024;-85
2021/06/10 07:00:20;;;;;;;12.18;8.70;;;16.30;99.90;;;;;;5956590;23;20471;-85
2021/06/10 07:02:49;;;;;;;12.45;10.13;;;16.80;99.90;;;;;;6003862;23;20047;-84
2021/06/10 07:05:17;;;;;;;10.20;8.50;;;17.00;99.90;;;;;;6002108;23;20059;-85
2021/06/10 07:07:45;;;;;;;24.48;13.07;;;17.20;99.90;;;;;;5957009;23;20023;-85
2021/06/10 07:10:16;;;;;;;10.20;9.18;;;17.50;99.90;;;;;;6005637;23;20024;-86
2021/06/10 07:12:44;;;;;;;10.10;7.95;;;18.10;99.90;;;;;;5980312;23;20030;-84
2021/06/10 07:15:13;;;;;;;13.15;9.85;;;18.70;99.90;;;;;;6026564;23;20032;-85
2021/06/10 07:17:41;;;;;;;12.32;9.65;;;19.60;99.90;;;;;;5979473;23;20329;-85
2021/06/10 07:20:13;;;;;;;12.85;9.57;;;20.50;99.90;;;;;;5999198;23;20027;-86
2021/06/10 07:22:42;;;;;;;11.73;9.65;;;21.70;99.90;;;;;;6004377;23;20028;-84
2021/06/10 07:25:10;;;;;;;10.10;8.40;;;21.20;99.90;;;;;;6004269;23;20027;-86
2021/06/10 07:27:39;;;;;;;11.60;10.40;;;21.00;99.90;;;;;;6004338;23;20039;-85
2021/06/10 07:30:11;;;;;;;12.23;10.32;;;20.00;99.90;;;;;;6000559;23;20475;-85
2021/06/10 07:32:41;;;;;;;17.60;9.52;;;19.10;99.90;;;;;;6004859;23;20020;-83
2021/06/10 07:35:14;;;;;;;10.65;9.32;;;19.20;99.90;;;;;;6012215;23;20030;-85
2021/06/10 07:37:44;;;;;;;9.40;7.82;;;19.90;99.90;;;;;;6002171;23;20028;-85
2021/06/10 07:40:31;;;;;;;10.57;8.02;;;21.00;99.90;;;;;;6004042;23;20020;-90
2021/06/10 07:43:03;;;;;;;10.07;8.48;;;22.10;99.90;;;;;;6003976;23;20027;-83
2021/06/10 07:45:33;;;;;;;11.77;10.25;;;20.80;99.90;;;;;;5979769;23;20020;-81
2021/06/10 07:48:02;;;;;;;9.77;8.40;;;19.70;99.90;;;;;;5979376;23;20340;-82
2021/06/10 07:50:31;;;;;;;10.98;8.68;;;19.00;99.90;;;;;;6002577;23;20344;-84
2021/06/10 07:53:15;;;;;;;10.27;8.93;;;18.80;99.90;;;;;;6002858;23;20563;-82
2021/06/10 07:55:54;;;;;;;11.68;10.15;;;19.00;99.90;;;;;;6005119;23;20035;-84
2021/06/10 07:58:24;;;;;;;10.68;8.90;;;19.00;99.90;;;;;;6003571;23;20036;-85
2021/06/10 08:00:56;;;;;;;12.70;10.07;;;19.30;99.90;;;;;;6011511;23;20035;-88
2021/06/10 08:03:25;;;;;;;9.55;8.55;;;19.40;99.90;;;;;;6008169;23;20039;-87
2021/06/10 08:05:56;;;;;;;10.80;8.82;;;19.40;99.90;;;;;;6006693;23;20035;-86
2021/06/10 08:08:36;;;;;;;8.82;7.93;;;19.50;99.90;;;;;;6008226;23;20027;-90
2021/06/10 08:11:12;;;;;;;10.02;8.90;;;19.70;99.90;;;;;;5984436;23;20035;-87
2021/06/10 08:13:40;;;;;;;9.18;8.27;;;19.80;99.90;;;;;;5960054;23;20031;-87
2021/06/10 08:16:09;;;;;;;13.98;10.57;;;19.50;99.90;;;;;;5983691;23;20039;-85
2021/06/10 08:18:38;;;;;;;10.57;9.20;;;19.10;99.90;;;;;;6008511;23;20340;-88
2021/06/10 08:21:06;;;;;;;8.52;7.68;;;19.00;99.90;;;;;;5959293;23;20475;-88
2021/06/10 08:23:35;;;;;;;10.27;8.57;;;19.00;99.90;;;;;;5984683;23;20027;-84
2021/06/10 08:26:08;;;;;;;13.98;8.40;;;19.20;99.90;;;;;;6026818;23;20024;-89
2021/06/10 08:28:36;;;;;;;11.98;8.48;;;19.40;99.90;;;;;;5984304;23;20043;-85
2021/06/10 08:31:16;;;;;;;16.30;9.02;;;19.90;99.90;;;;;;6008830;23;20043;-89
2021/06/10 08:33:45;;;;;;;8.98;7.97;;;20.10;99.90;;;;;;5987514;23;20027;-91
2021/06/10 08:36:18;;;;;;;12.25;10.38;;;20.00;99.90;;;;;;6006400;23;20042;-85
2021/06/10 08:38:48;;;;;;;12.70;9.35;;;19.90;99.90;;;;;;5984450;23;20031;-84
2021/06/10 08:41:19;;;;;;;8.77;6.88;;;19.50;99.90;;;;;;5983550;23;20464;-81
2021/06/10 08:43:47;;;;;;;12.98;8.27;;;19.20;99.90;;;;;;5996179;23;20016;-84
2021/06/10 08:46:16;;;;;;;9.10;7.50;;;19.10;99.90;;;;;;5984563;23;20019;-82
2021/06/10 08:48:47;;;;;;;8.35;7.03;;;19.00;99.90;;;;;;6012730;23;20019;-83
2021/06/10 08:51:15;;;;;;;9.18;8.30;;;19.00;99.90;;;;;;6018680;23;20020;-80
2021/06/10 08:53:44;;;;;;;13.15;9.00;;;18.90;99.90;;;;;;6008330;23;20356;-82
2021/06/10 08:56:13;;;;;;;9.80;7.65;;;19.00;99.90;;;;;;6015430;23;20031;-84
2021/06/10 08:58:42;;;;;;;10.75;8.70;;;19.00;99.90;;;;;;5984992;23;20023;-83
2021/06/10 09:01:13;;;;;;;10.27;7.80;;;19.10;99.90;;;;;;5982886;23;20040;-82
2021/06/10 09:03:42;;;;;;;8.70;7.78;;;19.20;99.90;;;;;;6030071;23;20336;-80
2021/06/10 09:06:16;;;;;;;9.73;8.65;;;19.30;99.90;;;;;;6007934;23;20565;-82
2021/06/10 09:08:53;;;;;;;8.85;7.88;;;19.50;99.90;;;;;;5994812;23;20019;-84
2021/06/10 09:11:24;;;;;;;10.95;8.73;;;19.50;99.90;;;;;;6008669;23;20046;-80
2021/06/10 09:14:07;;;;;;;14.10;9.05;;;19.60;99.90;;;;;;6008453;23;20040;-83
2021/06/10 09:16:40;;;;;;;9.50;7.68;;;19.70;99.90;;;;;;5983522;23;20028;-85
2021/06/10 09:19:13;;;;;;;10.98;9.88;;;19.80;99.90;;;;;;6004739;23;20040;-82
2021/06/10 09:21:46;;;;;;;9.10;8.18;;;20.00;99.90;;;;;;6004895;23;20028;-81
2021/06/10 09:24:23;;;;;;;11.45;8.25;;;20.10;99.90;;;;;;5956902;23;20336;-82
2021/06/10 09:26:57;;;;;;;10.10;7.53;;;20.40;99.90;;;;;;6005188;23;20784;-84
2021/06/10 09:29:47;;;;;;;9.43;8.45;;;20.60;99.90;;;;;;6006238;23;20019;-83
2021/06/10 09:32:25;;;;;;;9.30;8.07;;;20.90;99.90;;;;;;6006093;23;20016;-83
2021/06/10 09:34:57;;;;;;;12.23;8.70;;;21.10;99.90;;;;;;6006139;23;20024;-84
2021/06/10 09:37:30;;;;;;;17.55;9.30;;;21.20;99.90;;;;;;6006822;23;20028;-82
2021/06/10 09:40:06;;;;;;;14.13;10.07;;;20.80;99.90;;;;;;6017042;23;20027;-82
2021/06/10 09:42:37;;;;;;;12.35;9.75;;;20.40;99.90;;;;;;6009970;23;20019;-82
2021/06/10 09:45:17;;;;;;;10.10;8.13;;;20.10;99.90;;;;;;6005974;23;20344;-84
2021/06/10 09:47:49;;;;;;;12.10;7.90;;;19.80;99.90;;;;;;6015693;23;20376;-81
2021/06/10 09:50:26;;;;;;;10.20;8.55;;;19.70;99.90;;;;;;6003843;23;20023;-83
2021/06/10 09:53:05;;;;;;;15.45;9.40;;;19.50;99.90;;;;;;6006016;23;20669;-83
2021/06/10 09:55:41;;;;;;;9.57;8.00;;;19.40;99.90;;;;;;6006218;23;20019;-82
2021/06/10 09:58:12;;;;;;;9.82;8.35;;;19.30;99.90;;;;;;5981543;23;20368;-82
2021/06/10 10:00:49;;;;;;;8.38;7.50;;;19.30;99.90;;;;;;6004397;23;20046;-82
2021/06/10 10:03:40;;;;;;;12.25;7.75;;;19.30;99.90;;;;;;6002658;23;20356;-83
2021/06/10 10:06:21;;;;;;;9.13;7.43;;;19.40;99.90;;;;;;5952717;23;20024;-83
2021/06/10 10:09:07;;;;;;;15.65;8.85;;;19.30;99.90;;;;;;6002598;23;20352;-83
2021/06/10 10:11:36;;;;;;;10.57;9.35;;;19.30;99.90;;;;;;5979464;23;20023;-83
2021/06/10 10:14:06;;;;;;;8.02;7.25;;;19.30;99.90;;;;;;5982434;23;20032;-83
2021/06/10 10:16:36;;;;;;;7.90;7.15;;;19.40;99.90;;;;;;6005523;23;20028;-83
2021/06/10 10:19:05;;;;;;;10.50;7.47;;;19.40;99.90;;;;;;6004302;23;20030;-82
2021/06/10 10:21:36;;;;;;;9.95;8.93;;;19.40;99.90;;;;;;5979090;23;20031;-83
2021/06/10 10:24:11;;;;;;;9.68;7.95;;;19.70;99.90;;;;;;5979731;23;20027;-82
2021/06/10 10:26:41;;;;;;;12.15;8.18;;;20.20;99.90;;;;;;5957694;23;20019;-83
2021/06/10 10:29:11;;;;;;;8.18;6.95;;;20.50;99.90;;;;;;5978805;23;20030;-86
2021/06/10 10:31:42;;;;;;;9.55;8.57;;;20.70;99.90;;;;;;5980095;23;20024;-86
2021/06/10 10:34:30;;;;;;;12.07;8.90;;;20.90;99.90;;;;;;6002200;23;20035;-85
2021/06/10 10:36:58;;;;;;;8.98;7.45;;;20.70;99.90;;;;;;5980326;23;20046;-87
2021/06/10 10:39:36;;;;;;;13.77;9.38;;;20.60;99.90;;;;;;5980717;23;20054;-86
2021/06/10 10:42:09;;;;;;;10.30;8.25;;;20.80;99.90;;;;;;5980944;23;20347;-87
2021/06/10 10:44:39;;;;;;;7.55;6.85;;;21.10;99.90;;;;;;5980515;23;20027;-87
2021/06/10 10:47:11;;;;;;;8.57;7.78;;;21.20;99.50;;;;;;6004893;23;20019;-84
2021/06/10 10:49:45;;;;;;;8.25;7.43;;;21.20;99.90;;;;;;6004393;23;20028;-84
2021/06/10 10:52:13;;;;;;;9.00;7.55;;;21.30;99.90;;;;;;5982078;23;20042;-83
2021/06/10 10:54:45;;;;;;;8.88;8.07;;;21.30;99.90;;;;;;6008542;23;20016;-85
2021/06/10 10:57:45;;;;;;;9.85;8.88;;;21.10;99.90;;;;;;6006469;23;20035;-81
2021/06/10 11:00:20;;;;;;;9.18;8.27;;;20.90;99.90;;;;;;5982049;23;20544;-82
2021/06/10 11:03:19;;;;;;;8.73;7.85;;;20.50;99.90;;;;;;5961354;23;20020;-83
2021/06/10 11:05:47;;;;;;;10.25;9.15;;;20.30;99.90;;;;;;6005583;23;20043;-81
2021/06/10 11:08:15;;;;;;;10.43;9.40;;;20.10;99.90;;;;;;5983081;23;20031;-82
2021/06/10 11:10:54;;;;;;;13.13;9.77;;;20.10;99.90;;;;;;5983337;23;20016;-81
2021/06/10 11:13:29;;;;;;;12.00;10.23;;;20.00;99.90;;;;;;6008132;23;20027;-82
2021/06/10 11:16:01;;;;;;;10.60;9.50;;;20.00;99.90;;;;;;5959618;23;20026;-82
2021/06/10 11:19:20;;;;;;;14.88;10.02;;;20.00;99.90;;;;;;5983674;23;20024;-84
2021/06/10 11:21:54;;;;;;;16.42;10.45;;;20.00;99.90;;;;;;5947103;23;20468;-83
2021/06/10 11:24:23;;;;;;;11.70;10.57;;;20.00;99.90;;;;;;5960466;23;20031;-82
2021/06/10 11:27:04;;;;;;;10.80;9.25;;;20.00;99.90;;;;;;5984344;23;20026;-84
2021/06/10 11:30:39;;;;;;;15.25;10.07;;;20.10;99.90;;;;;;6003825;23;20460;-86
2021/06/10 11:34:17;;;;;;;15.52;10.70;;;20.30;99.90;;;;;;5912745;24;20108;-84
2021/06/10 11:36:54;;;;;;;12.73;10.02;;;21.00;99.90;;;;;;5899077;24;20519;-84
2021/06/10 11:39:42;;;;;;;12.07;10.85;;;20.90;99.90;;;;;;5949350;24;20457;-85
2021/06/10 11:42:24;;;;;;;10.82;9.63;;;21.00;99.90;;;;;;5933052;23;20031;-83
2021/06/10 11:44:55;;;;;;;13.20;10.90;;;20.90;99.90;;;;;;5982395;23;20026;-85
2021/06/10 11:47:50;;;;;;;9.85;8.85;;;21.20;99.90;;;;;;6003619;23;20011;-85
2021/06/10 11:50:58;;;;;;;10.40;9.35;;;21.00;99.90;;;;;;5983595;23;20070;-87
2021/06/10 11:53:34;;;;;;;14.38;8.82;;;21.20;99.90;;;;;;6006244;23;20031;-82
2021/06/10 11:56:05;;;;;;;9.75;8.77;;;21.40;99.90;;;;;;6006492;23;20046;-84
2021/06/10 11:58:39;;;;;;;10.00;8.35;;;21.40;99.90;;;;;;6007305;23;20030;-84
2021/06/10 12:01:31;;;;;;;11.52;10.23;;;21.50;99.90;;;;;;5982693;23;20035;-84
2021/06/10 12:04:08;;;;;;;13.90;9.57;;;21.50;99.90;;;;;;6008029;23;20389;-85
2021/06/10 12:06:36;;;;;;;16.27;9.50;;;21.30;99.90;;;;;;5959276;23;20019;-80
2021/06/10 12:09:13;;;;;;;10.57;9.40;;;21.40;99.90;;;;;;6007175;23;20020;-88
2021/06/10 12:11:54;;;;;;;9.68;8.60;;;21.50;99.90;;;;;;6018543;23;20027;-86
2021/06/10 12:15:00;;;;;;;8.77;7.97;;;21.70;99.90;;;;;;5983956;23;20023;-85
2021/06/10 12:18:07;;;;;;;9.15;7.55;;;21.60;99.90;;;;;;5985585;23;20456;-83
2021/06/10 12:21:12;;;;;;;17.00;10.32;;;21.70;99.90;;;;;;5997187;23;20364;-87
2021/06/10 12:23:45;;;;;;;10.10;7.65;;;21.80;99.60;;;;;;6005986;23;20020;-83
2021/06/10 12:26:21;;;;;;;9.02;8.13;;;21.60;99.90;;;;;;6004811;23;20023;-82
2021/06/10 12:28:59;;;;;;;8.88;7.97;;;21.50;99.80;;;;;;6004398;23;20024;-86
2021/06/10 12:31:37;;;;;;;8.70;6.50;;;21.60;99.90;;;;;;5981771;23;20026;-86
2021/06/10 12:34:10;;;;;;;9.80;8.90;;;21.80;99.90;;;;;;5979450;23;20765;-84
2021/06/10 12:36:44;;;;;;;8.43;7.63;;;21.90;99.90;;;;;;5977621;23;20460;-84
2021/06/10 12:39:18;;;;;;;10.43;7.65;;;22.00;99.90;;;;;;5955447;23;20020;-82
2021/06/10 12:41:55;;;;;;;12.10;7.88;;;22.20;99.10;;;;;;5976245;23;20038;-90
2021/06/10 12:44:42;;;;;;;9.85;6.93;;;22.20;98.70;;;;;;5998809;23;20056;-85
2021/06/10 12:47:13;;;;;;;8.18;7.40;;;22.20;99.90;;;;;;6033587;23;20218;-84
2021/06/10 12:49:48;;;;;;;8.00;7.30;;;22.50;99.90;;;;;;6012564;23;20046;-86
2021/06/10 12:52:36;;;;;;;7.20;6.50;;;22.50;98.10;;;;;;6027273;23;20033;-85
2021/06/10 12:55:05;;;;;;;7.32;6.60;;;22.60;97.40;;;;;;6050264;23;20030;-83
2021/06/10 12:57:37;;;;;;;7.85;7.13;;;22.60;98.10;;;;;;6041168;23;20035;-84
2021/06/10 13:00:11;;;;;;;8.80;7.13;;;22.50;99.40;;;;;;6062545;23;21599;-85
2021/06/10 13:02:45;;;;;;;8.45;7.15;;;22.30;98.20;;;;;;6066423;23;20019;-84
2021/06/10 13:05:17;;;;;;;8.23;6.55;;;22.00;99.50;;;;;;6063729;23;20681;-84